• NOTAM LFDY

    Service NotamWeb du SIA indisponible - NOTAMS inconnus

    NOTAM LFDI

    Service NotamWeb du SIA indisponible - NOTAMS inconnus

    NOTAM LFCS

    Service NotamWeb du SIA indisponible - NOTAMS inconnus











  • PHOTOS SATELLITE

CARTE TEMSI

CARTE WINTEM

  • Vent en live

  • ANIMATION RADAR

  • METAR/TAF LFBD (BORDEAUX / Mérignac)

    LFBD 272100Z AUTO 26014KT 4900 RA BR BKN007/// BKN013/// OVC022/// ///TCU 17/16 Q1012 TEMPO 28015G25KT 2000 RA BKN005

    TAF LFBD 271700Z 2718/2824 27012KT 9999 BKN040 TX19/2812Z TN13/2824Z TEMPO 2718/2723 4000 -RA BKN015 PROB40 TEMPO 2719/2723 28015G25KT 2000 RA BKN005 TEMPO 2723/2824 28015G25KT 3000 SHRA BKN010 FEW015CB BKN020TCU

RESERVATION